MET'MAP v2.0
soon released !

Expected late october,
this new version will be
more efficient, smarter,
and hosted on a brand new
server x3 powerfull...
...and still free !


Not compatible ?
Try the mobile version !

LOG IN : | Subscribe | Disclaimer | Who is Orbifly ? |
ICAO code :

TAF - LRBS Bucarest - Baneasa Aurel Vlaicu - 02 Jun 2020 03:49 UTC - Data Source NOAA   


- Airport Elevation : 297 ft
- IATA code : BBU
- No reported NOTAMs.


LRBS - Bucarest - Baneasa Aurel Vlaicu

Latest METAR recorded : 2015/08/11 08:00 LRBS 110800Z 04009KT 350V080 CAVOK 31/13 Q1012 NOSIG
TAF TAF LRBS
Valid from the 02 at 00:00 until the 03 at 00:00 UTC


012300Z 0200/0300 VRB04KT CAVOK
PROB30
TEMPO 0200/0204 5000 -SHRA SCT040CB
BECMG 0204/0206 06010KT
TEMPO 0205/0217 5000 SHRA SCT015 SCT040CB BKN045
PROB40 0209/0214 3000 TSRA BKN010 BKN035CB
BECMG 0216/0218 VRB03KT

Source NOAA


MET'MAP, your aeronautical weather chart ! - Copyright ORBIFLY December 2007

Programming & Development : Alexandra Zaïnal
Co-Developer : Marc-Olivier Méhu
Technical & hardware support : Manuel Goepfert
Concept & Financing : Baudouin d'Aumeries